createdAt,value
2023-01-19T00:01:01.015Z,2.35
2023-01-19T00:03:28.586Z,2.58
2023-01-19T00:05:56.166Z,2.38
2023-01-19T00:08:23.645Z,1.85
2023-01-19T00:13:37.422Z,2.65
2023-01-19T00:16:05.275Z,2.28
2023-01-19T00:18:32.889Z,1.73
2023-01-19T00:21:00.308Z,2.30
2023-01-19T00:23:27.785Z,1.88
2023-01-19T00:25:55.609Z,2.20
2023-01-19T00:28:23.107Z,2.30
2023-01-19T00:30:51.359Z,2.08
2023-01-19T00:33:18.815Z,2.40
2023-01-19T00:35:51.992Z,2.75
2023-01-19T00:38:20.021Z,2.13
2023-01-19T00:40:48.360Z,2.13
2023-01-19T00:43:15.933Z,1.45
2023-01-19T00:45:43.536Z,2.30
2023-01-19T00:48:11.112Z,2.08
2023-01-19T00:50:45.955Z,2.63
2023-01-19T00:53:13.457Z,2.40
2023-01-19T00:55:41.008Z,2.08
2023-01-19T00:58:08.457Z,2.00
2023-01-19T01:00:35.957Z,2.42
2023-01-19T01:03:04.131Z,2.55
2023-01-19T01:05:31.991Z,2.10
2023-01-19T01:07:59.491Z,2.20
2023-01-19T01:10:29.753Z,1.75
2023-01-19T01:12:59.239Z,2.22
2023-01-19T01:15:28.305Z,2.30
2023-01-19T01:20:30.420Z,1.92
2023-01-19T01:22:58.906Z,2.42
2023-01-19T01:25:28.620Z,2.22
2023-01-19T01:27:56.156Z,1.90
2023-01-19T01:30:24.212Z,1.80
2023-01-19T01:32:51.638Z,1.90
2023-01-19T01:35:19.108Z,2.17
2023-01-19T01:37:46.663Z,2.17
2023-01-19T01:40:17.409Z,2.30
2023-01-19T01:42:45.743Z,1.67
2023-01-19T01:45:23.879Z,2.42
2023-01-19T01:47:53.182Z,2.40
2023-01-19T01:53:06.630Z,2.72
2023-01-19T01:55:43.590Z,2.40
2023-01-19T01:58:12.863Z,2.00
2023-01-19T02:00:59.299Z,1.77
2023-01-19T02:03:28.766Z,2.20
2023-01-19T02:06:00.110Z,2.60
2023-01-19T02:09:05.654Z,2.28
2023-01-19T02:11:52.436Z,2.38
2023-01-19T02:14:20.170Z,2.10
2023-01-19T02:16:47.854Z,2.45
2023-01-19T02:19:35.551Z,2.63
2023-01-19T02:22:13.228Z,2.60
2023-01-19T02:24:41.493Z,2.20
2023-01-19T02:27:10.063Z,2.38
2023-01-19T02:29:37.779Z,2.90
2023-01-19T02:32:06.055Z,2.25
2023-01-19T02:34:33.687Z,2.90
2023-01-19T02:37:20.972Z,2.28
2023-01-19T02:39:55.962Z,2.10
2023-01-19T02:42:32.641Z,3.20
2023-01-19T02:45:00.231Z,2.85
2023-01-19T02:47:27.605Z,2.88
2023-01-19T02:49:59.361Z,3.08
2023-01-19T02:52:28.312Z,2.50
2023-01-19T02:55:18.536Z,2.90
2023-01-19T02:58:07.544Z,2.13
2023-01-19T03:00:45.315Z,2.88
2023-01-19T03:03:12.737Z,3.05
2023-01-19T03:06:15.965Z,2.65
2023-01-19T03:08:57.693Z,2.30
2023-01-19T03:11:32.383Z,2.70
2023-01-19T03:14:09.217Z,2.03
2023-01-19T03:16:45.846Z,2.50
2023-01-19T03:19:20.422Z,2.10
2023-01-19T03:21:52.706Z,2.60
2023-01-19T03:24:23.928Z,2.63
2023-01-19T03:27:12.651Z,2.83
2023-01-19T03:29:42.458Z,3.30
2023-01-19T03:32:14.823Z,2.88
2023-01-19T03:34:44.475Z,2.85
2023-01-19T03:37:14.487Z,2.45
2023-01-19T03:39:42.436Z,2.47
2023-01-19T03:42:14.801Z,2.78
2023-01-19T03:44:44.922Z,2.67
2023-01-19T03:47:14.984Z,2.70
2023-01-19T03:49:45.550Z,3.40
2023-01-19T03:52:13.150Z,2.28
2023-01-19T03:54:41.279Z,2.55
2023-01-19T03:57:08.758Z,2.60
2023-01-19T03:59:36.842Z,2.15
2023-01-19T04:02:04.308Z,3.53
2023-01-19T04:04:31.930Z,3.60
2023-01-19T04:09:41.650Z,2.90
2023-01-19T04:12:09.585Z,3.20
2023-01-19T04:14:38.575Z,2.60
2023-01-19T04:17:06.254Z,2.47
2023-01-19T04:19:33.683Z,3.05
2023-01-19T04:24:46.133Z,2.13
2023-01-19T04:27:15.477Z,2.70
2023-01-19T04:29:48.899Z,2.42
2023-01-19T04:32:17.639Z,3.40
2023-01-19T04:34:45.043Z,2.95
2023-01-19T04:37:12.751Z,2.67
2023-01-19T04:39:40.195Z,3.28
2023-01-19T04:42:08.200Z,3.42
2023-01-19T04:44:35.741Z,3.40
2023-01-19T04:47:03.653Z,2.58
2023-01-19T04:49:31.176Z,2.72
2023-01-19T04:51:58.560Z,3.22
2023-01-19T04:54:27.296Z,3.63
2023-01-19T04:56:55.337Z,4.15
2023-01-19T04:59:24.931Z,4.25
2023-01-19T05:01:52.947Z,4.90
2023-01-19T05:04:22.741Z,4.97
2023-01-19T05:06:52.063Z,2.63
2023-01-19T05:09:22.136Z,3.35
2023-01-19T05:11:49.666Z,3.85
2023-01-19T05:14:17.542Z,2.75
2023-01-19T05:19:14.903Z,2.83
2023-01-19T05:21:42.925Z,2.60
2023-01-19T05:24:10.724Z,2.40
2023-01-19T05:26:38.981Z,2.60
2023-01-19T05:29:07.005Z,2.38
2023-01-19T05:31:35.913Z,2.83
2023-01-19T05:34:04.886Z,2.90
2023-01-19T05:39:00.356Z,1.75
2023-01-19T05:41:28.685Z,3.17
2023-01-19T05:43:56.769Z,3.67
2023-01-19T05:46:27.297Z,2.70
2023-01-19T05:48:55.985Z,2.78
2023-01-19T05:51:25.045Z,3.08
2023-01-19T05:53:55.391Z,3.65
2023-01-19T05:56:24.207Z,2.92
2023-01-19T05:58:53.325Z,3.20
2023-01-19T06:01:21.837Z,3.13
2023-01-19T06:03:51.083Z,3.35
2023-01-19T06:06:19.142Z,2.15
2023-01-19T06:08:48.427Z,3.20
2023-01-19T06:11:16.537Z,3.58
2023-01-19T06:13:44.767Z,3.53
2023-01-19T06:16:13.013Z,3.05
2023-01-19T06:18:45.371Z,3.10
2023-01-19T06:21:16.267Z,3.65
2023-01-19T06:26:32.249Z,3.00
2023-01-19T06:29:00.094Z,3.05
2023-01-19T06:31:30.407Z,3.78
2023-01-19T06:33:58.150Z,3.85
2023-01-19T06:36:27.941Z,2.95
2023-01-19T06:38:58.410Z,3.20
2023-01-19T06:42:21.189Z,3.22
2023-01-19T06:45:07.741Z,3.47
2023-01-19T06:47:38.053Z,3.30
2023-01-19T06:50:09.503Z,3.13
2023-01-19T06:52:42.844Z,3.80
2023-01-19T06:55:13.653Z,3.53
2023-01-19T06:57:42.543Z,3.35
2023-01-19T07:00:14.874Z,3.72
2023-01-19T07:02:43.964Z,3.08
2023-01-19T07:08:13.597Z,3.88
2023-01-19T07:11:26.519Z,3.83
2023-01-19T07:13:29.804Z,3.80
2023-01-19T07:16:01.665Z,2.83
2023-01-19T07:18:29.861Z,4.05
2023-01-19T07:20:58.934Z,3.00
2023-01-19T07:23:31.233Z,4.30
2023-01-19T07:26:04.217Z,4.72
2023-01-19T07:28:38.512Z,4.38
2023-01-19T07:31:10.401Z,5.28
2023-01-19T07:33:47.555Z,4.85
2023-01-19T07:36:42.661Z,4.60
2023-01-19T07:42:17.825Z,4.53
2023-01-19T07:44:51.657Z,4.20
2023-01-19T07:47:20.065Z,4.32
2023-01-19T07:49:48.141Z,3.80
2023-01-19T07:52:15.665Z,5.60
2023-01-19T07:54:43.626Z,5.13
2023-01-19T07:57:12.418Z,4.95
2023-01-19T07:59:40.159Z,5.28
2023-01-19T08:02:10.915Z,4.68
2023-01-19T08:04:39.605Z,5.28
2023-01-19T08:07:07.711Z,4.93
2023-01-19T08:09:35.568Z,4.07
2023-01-19T08:12:05.364Z,5.07
2023-01-19T08:14:35.587Z,5.03
2023-01-19T08:17:06.584Z,5.28
2023-01-19T08:19:34.766Z,5.57
2023-01-19T08:22:04.379Z,6.22
2023-01-19T08:27:20.960Z,6.10
2023-01-19T08:29:50.155Z,5.00
2023-01-19T08:32:18.447Z,5.22
2023-01-19T08:34:57.887Z,4.82
2023-01-19T08:37:45.352Z,4.47
2023-01-19T08:40:13.719Z,4.45
2023-01-19T08:42:41.309Z,4.90
2023-01-19T08:45:09.724Z,4.80
2023-01-19T08:47:37.751Z,4.22
2023-01-19T08:52:34.637Z,4.50
2023-01-19T08:55:02.307Z,3.20
2023-01-19T08:57:31.657Z,4.25
2023-01-19T09:00:01.560Z,5.10
2023-01-19T09:02:30.774Z,4.22
2023-01-19T09:04:58.568Z,4.90
2023-01-19T09:07:27.476Z,4.60
2023-01-19T09:09:56.940Z,4.85
2023-01-19T09:14:53.364Z,5.00
2023-01-19T09:21:22.776Z,4.93
2023-01-19T09:23:51.376Z,4.88
2023-01-19T09:26:21.420Z,4.68
2023-01-19T09:28:50.991Z,3.97
2023-01-19T09:31:19.695Z,4.15
2023-01-19T09:36:15.591Z,4.63
2023-01-19T09:38:44.187Z,4.82
2023-01-19T09:41:21.741Z,3.90
2023-01-19T09:43:59.964Z,5.05
2023-01-19T09:46:37.361Z,4.57
2023-01-19T09:49:15.041Z,4.88
2023-01-19T09:51:48.461Z,4.80
2023-01-19T09:54:24.475Z,4.55
2023-01-19T09:56:54.172Z,4.57
2023-01-19T09:59:33.079Z,4.32
2023-01-19T10:02:23.898Z,3.80
2023-01-19T10:05:05.967Z,4.55
2023-01-19T10:10:18.610Z,4.18
2023-01-19T10:13:32.399Z,3.67
2023-01-19T10:16:34.280Z,4.38
2023-01-19T10:19:26.313Z,3.85
2023-01-19T10:21:58.270Z,3.65
2023-01-19T10:24:37.763Z,4.10
2023-01-19T10:27:21.526Z,3.22
2023-01-19T10:29:50.493Z,3.42
2023-01-19T10:34:50.559Z,3.53
2023-01-19T10:37:18.154Z,4.20
2023-01-19T10:39:54.903Z,4.63
2023-01-19T10:42:22.526Z,3.53
2023-01-19T10:44:50.588Z,3.35
2023-01-19T10:47:21.961Z,3.70
2023-01-19T10:49:50.482Z,3.25
2023-01-19T10:52:31.010Z,4.22
2023-01-19T10:55:02.218Z,3.97
2023-01-19T10:57:38.127Z,3.33
2023-01-19T11:00:08.346Z,9.55
2023-01-19T11:02:36.358Z,5.07
2023-01-19T11:05:27.734Z,5.22
2023-01-19T11:07:56.684Z,4.97
2023-01-19T11:10:27.192Z,4.80
2023-01-19T11:13:01.685Z,4.05
2023-01-19T11:15:36.269Z,2.92
2023-01-19T11:18:07.144Z,3.30
2023-01-19T11:21:07.993Z,3.22
2023-01-19T11:23:51.580Z,3.20
2023-01-19T11:26:35.257Z,3.50
2023-01-19T11:29:05.650Z,2.70
2023-01-19T11:31:36.123Z,3.25
2023-01-19T11:34:25.243Z,3.38
2023-01-19T11:36:59.462Z,2.90
2023-01-19T11:39:29.644Z,2.88
2023-01-19T11:47:45.566Z,3.00
2023-01-19T11:50:28.406Z,3.25
2023-01-19T11:53:01.448Z,3.40
2023-01-19T11:55:49.184Z,3.00
2023-01-19T11:58:19.997Z,3.35
2023-01-19T12:01:16.230Z,3.55
2023-01-19T12:03:49.513Z,2.70
2023-01-19T12:06:24.966Z,2.40
2023-01-19T12:09:03.570Z,2.88
2023-01-19T12:11:43.775Z,3.00
2023-01-19T12:14:28.572Z,2.38
2023-01-19T12:17:00.184Z,2.97
2023-01-19T12:19:42.147Z,3.97
2023-01-19T12:22:16.198Z,2.33
2023-01-19T12:25:02.459Z,2.90
2023-01-19T12:27:44.904Z,3.03
2023-01-19T12:30:28.570Z,2.42
2023-01-19T12:33:27.661Z,2.25
2023-01-19T12:36:38.055Z,2.72
2023-01-19T12:39:08.915Z,2.20
2023-01-19T12:41:38.447Z,2.40
2023-01-19T12:44:16.604Z,2.38
2023-01-19T12:46:49.187Z,1.98
2023-01-19T12:49:45.241Z,2.15
2023-01-19T12:52:26.106Z,2.20
2023-01-19T12:54:57.934Z,2.10
2023-01-19T12:57:39.909Z,2.25
2023-01-19T13:00:08.148Z,2.28
2023-01-19T13:02:47.366Z,2.33
2023-01-19T13:05:33.705Z,2.67
2023-01-19T13:08:07.233Z,2.20
2023-01-19T13:11:00.723Z,2.38
2023-01-19T13:13:31.795Z,2.63
2023-01-19T13:16:21.705Z,2.67
2023-01-19T13:19:06.840Z,3.42
2023-01-19T13:21:34.560Z,3.40
2023-01-19T13:24:05.252Z,2.55
2023-01-19T13:26:39.829Z,2.95
2023-01-19T13:29:10.390Z,2.92
2023-01-19T13:31:41.105Z,2.92
2023-01-19T13:34:22.282Z,3.05
2023-01-19T13:37:00.825Z,3.00
2023-01-19T13:39:38.632Z,2.90
2023-01-19T13:42:13.915Z,2.72
2023-01-19T13:47:21.600Z,2.70
2023-01-19T13:49:56.233Z,2.30
2023-01-19T13:52:27.259Z,2.53
2023-01-19T13:55:00.542Z,2.83
2023-01-19T13:57:51.919Z,2.15
2023-01-19T14:00:26.882Z,2.28
2023-01-19T14:02:59.602Z,2.60
2023-01-19T14:05:40.476Z,2.40
2023-01-19T14:08:11.579Z,2.60
2023-01-19T14:11:01.477Z,2.45
2023-01-19T14:13:40.481Z,2.70
2023-01-19T14:16:17.245Z,2.65
2023-01-19T14:18:44.749Z,2.38
2023-01-19T14:21:14.406Z,2.90
2023-01-19T14:23:47.962Z,2.03
2023-01-19T14:26:51.638Z,2.55
2023-01-19T14:29:29.555Z,3.05
2023-01-19T14:32:22.949Z,3.20
2023-01-19T14:35:13.918Z,2.60
2023-01-19T14:37:51.262Z,2.42
2023-01-19T14:40:22.211Z,2.50
2023-01-19T14:43:08.648Z,2.58
2023-01-19T14:45:40.752Z,2.42
2023-01-19T14:48:20.796Z,2.47
2023-01-19T14:51:02.730Z,2.33
2023-01-19T14:53:39.176Z,2.35
2023-01-19T14:56:07.701Z,2.50
2023-01-19T14:58:35.929Z,2.70
2023-01-19T15:01:04.443Z,2.85
2023-01-19T15:03:44.040Z,2.28
2023-01-19T15:06:17.739Z,2.60
2023-01-19T15:08:46.165Z,2.13
2023-01-19T15:11:21.452Z,2.72
2023-01-19T15:13:49.754Z,2.50
2023-01-19T15:16:17.524Z,2.00
2023-01-19T15:18:45.182Z,1.70
2023-01-19T15:21:19.834Z,3.13
2023-01-19T15:23:47.811Z,1.70
2023-01-19T15:26:21.248Z,1.30
2023-01-19T15:28:49.903Z,1.40
2023-01-19T15:31:19.875Z,1.48
2023-01-19T15:33:47.454Z,1.42
2023-01-19T15:36:18.057Z,1.27
2023-01-19T15:38:46.909Z,1.60
2023-01-19T15:41:24.104Z,1.48
2023-01-19T15:43:52.200Z,1.10
2023-01-19T15:46:23.855Z,1.58
2023-01-19T15:48:52.401Z,1.52
2023-01-19T15:51:22.615Z,1.52
2023-01-19T15:53:50.689Z,0.82
2023-01-19T15:56:24.884Z,1.17
2023-01-19T15:58:53.985Z,1.30
2023-01-19T16:03:51.015Z,1.27
2023-01-19T16:06:18.952Z,1.50
2023-01-19T16:08:46.845Z,1.50
2023-01-19T16:11:15.586Z,1.33
2023-01-19T16:13:47.506Z,0.95
2023-01-19T16:16:17.600Z,1.02
2023-01-19T16:18:45.690Z,1.23
2023-01-19T16:21:13.041Z,1.10
2023-01-19T16:23:40.977Z,1.27
2023-01-19T16:26:25.311Z,1.05
2023-01-19T16:29:00.242Z,1.50
2023-01-19T16:31:28.729Z,1.48
2023-01-19T16:33:56.569Z,1.50
2023-01-19T16:36:30.195Z,2.20
2023-01-19T16:39:10.735Z,2.13
2023-01-19T16:41:38.744Z,1.67
2023-01-19T16:44:07.259Z,1.98
2023-01-19T16:46:37.196Z,1.63
2023-01-19T16:49:07.159Z,1.30
2023-01-19T16:51:34.647Z,1.60
2023-01-19T16:54:02.075Z,1.38
2023-01-19T16:56:30.823Z,1.38
2023-01-19T16:59:00.581Z,1.35
2023-01-19T17:01:29.659Z,1.67
2023-01-19T17:03:57.721Z,1.88
2023-01-19T17:06:25.780Z,1.80
2023-01-19T17:08:54.342Z,2.00
2023-01-19T17:11:43.353Z,1.48
2023-01-19T17:14:14.264Z,1.75
2023-01-19T17:16:48.947Z,1.75
2023-01-19T17:19:22.398Z,1.25
2023-01-19T17:21:50.227Z,2.70
2023-01-19T17:24:18.044Z,1.67
2023-01-19T17:26:49.040Z,1.30
2023-01-19T17:29:17.432Z,1.73
2023-01-19T17:31:47.663Z,1.75
2023-01-19T17:34:15.580Z,1.73
2023-01-19T17:36:44.359Z,0.90
2023-01-19T17:39:15.071Z,1.75
2023-01-19T17:41:42.545Z,1.45
2023-01-19T17:44:10.799Z,1.10
2023-01-19T17:46:39.284Z,1.30
2023-01-19T17:49:07.830Z,1.92
2023-01-19T17:51:35.489Z,2.65
2023-01-19T17:54:04.320Z,1.95
2023-01-19T17:56:36.980Z,1.55
2023-01-19T17:59:08.267Z,1.30
2023-01-19T18:01:40.087Z,1.42
2023-01-19T18:04:08.785Z,1.25
2023-01-19T18:06:38.047Z,1.60
2023-01-19T18:09:09.041Z,0.80
2023-01-19T18:11:36.605Z,0.90
2023-01-19T18:14:05.671Z,1.60
2023-01-19T18:16:33.282Z,1.08
2023-01-19T18:19:00.872Z,1.15
2023-01-19T18:21:33.413Z,1.17
2023-01-19T18:24:03.522Z,1.20
2023-01-19T18:26:34.149Z,1.40
2023-01-19T18:29:02.382Z,1.50
2023-01-19T18:31:31.155Z,1.38
2023-01-19T18:34:00.062Z,1.58
2023-01-19T18:36:27.839Z,1.02
2023-01-19T18:38:55.454Z,1.00
2023-01-19T18:41:22.888Z,1.30
2023-01-19T18:43:52.264Z,1.13
2023-01-19T18:46:19.844Z,0.80
2023-01-19T18:48:47.426Z,0.93
2023-01-19T18:51:16.297Z,1.27
2023-01-19T18:53:45.177Z,1.00
2023-01-19T18:58:59.745Z,0.82
2023-01-19T19:01:33.139Z,0.70
2023-01-19T19:04:02.517Z,1.30
2023-01-19T19:08:59.508Z,1.13
2023-01-19T19:13:58.203Z,1.35
2023-01-19T19:16:26.099Z,1.02
2023-01-19T19:18:53.671Z,1.40
2023-01-19T19:21:22.560Z,1.02
2023-01-19T19:26:18.738Z,0.73
2023-01-19T19:28:47.582Z,0.75
2023-01-19T19:31:20.704Z,0.90
2023-01-19T19:33:49.422Z,1.08
2023-01-19T19:36:17.008Z,1.08
2023-01-19T19:38:47.877Z,1.33
2023-01-19T19:41:20.496Z,1.33
2023-01-19T19:43:48.495Z,2.10
2023-01-19T19:46:19.355Z,1.95
2023-01-19T19:48:48.022Z,2.13
2023-01-19T19:54:04.573Z,3.00
2023-01-19T19:56:34.376Z,2.85
2023-01-19T19:59:01.879Z,2.40
2023-01-19T20:01:33.717Z,2.53
2023-01-19T20:04:10.189Z,2.20
2023-01-19T20:06:40.221Z,1.67
2023-01-19T20:09:10.886Z,1.15
2023-01-19T20:11:39.392Z,0.90
2023-01-19T20:14:08.452Z,1.00
2023-01-19T20:16:47.833Z,0.80
2023-01-19T20:19:18.080Z,0.50
2023-01-19T20:21:52.775Z,0.95
2023-01-19T20:24:20.878Z,0.98
2023-01-19T20:26:52.432Z,0.70
2023-01-19T20:29:21.040Z,0.65
2023-01-19T20:31:53.956Z,0.82
2023-01-19T20:34:24.051Z,1.33
2023-01-19T20:37:02.022Z,0.43
2023-01-19T20:39:34.864Z,0.75
2023-01-19T20:44:49.986Z,0.60
2023-01-19T20:47:17.397Z,0.43
2023-01-19T20:49:44.793Z,0.90
2023-01-19T20:52:12.244Z,0.70
2023-01-19T20:54:40.232Z,0.43
2023-01-19T20:57:07.599Z,0.70
2023-01-19T20:59:37.177Z,0.50
2023-01-19T21:02:08.112Z,0.60
2023-01-19T21:04:35.596Z,0.68
2023-01-19T21:07:05.255Z,0.38
2023-01-19T21:09:32.706Z,0.60
2023-01-19T21:12:00.115Z,0.70
2023-01-19T21:14:27.871Z,0.57
2023-01-19T21:16:59.726Z,0.73
2023-01-19T21:19:27.208Z,0.77
2023-01-19T21:21:55.520Z,1.00
2023-01-19T21:24:28.577Z,0.60
2023-01-19T21:27:15.183Z,0.47
2023-01-19T21:29:42.535Z,0.52
2023-01-19T21:32:10.050Z,0.85
2023-01-19T21:34:37.648Z,0.70
2023-01-19T21:37:05.011Z,0.30
2023-01-19T21:39:32.321Z,0.55
2023-01-19T21:41:59.766Z,0.80
2023-01-19T21:44:27.314Z,0.50
2023-01-19T21:46:55.980Z,0.40
2023-01-19T21:49:23.476Z,0.50
2023-01-19T21:51:50.994Z,0.65
2023-01-19T21:54:19.123Z,0.43
2023-01-19T21:56:46.769Z,0.55
2023-01-19T21:59:15.555Z,0.70
2023-01-19T22:01:45.190Z,0.70
2023-01-19T22:04:12.799Z,0.50
2023-01-19T22:06:40.361Z,0.57
2023-01-19T22:09:08.214Z,0.50
2023-01-19T22:11:35.982Z,0.63
2023-01-19T22:14:03.506Z,0.35
2023-01-19T22:16:31.233Z,0.50
2023-01-19T22:19:02.408Z,0.80
2023-01-19T22:21:33.346Z,1.20
2023-01-19T22:24:02.493Z,0.90
2023-01-19T22:26:31.176Z,0.98
2023-01-19T22:29:00.351Z,0.93
2023-01-19T22:31:29.499Z,0.57
2023-01-19T22:33:57.623Z,0.63
2023-01-19T22:36:28.001Z,0.68
2023-01-19T22:39:16.717Z,0.77
2023-01-19T22:41:46.643Z,0.80
2023-01-19T22:44:21.241Z,0.90
2023-01-19T22:46:50.382Z,0.50
2023-01-19T22:51:46.244Z,0.60
2023-01-19T22:54:14.244Z,0.80
2023-01-19T22:56:42.267Z,0.52
2023-01-19T22:59:15.127Z,0.70
2023-01-19T23:01:44.228Z,0.68
2023-01-19T23:04:16.271Z,0.50
2023-01-19T23:06:47.104Z,0.60
2023-01-19T23:09:15.568Z,0.50
2023-01-19T23:11:45.099Z,0.98
2023-01-19T23:14:19.741Z,0.60
2023-01-19T23:16:47.663Z,0.55
2023-01-19T23:19:17.380Z,1.17
2023-01-19T23:21:45.495Z,0.95
2023-01-19T23:24:13.122Z,0.30
2023-01-19T23:26:40.565Z,0.93
2023-01-19T23:29:12.009Z,0.77
2023-01-19T23:31:42.726Z,0.60
2023-01-19T23:34:12.562Z,0.63
2023-01-19T23:36:47.234Z,0.77
2023-01-19T23:39:17.213Z,0.55
2023-01-19T23:41:44.747Z,0.75
2023-01-19T23:44:12.183Z,0.73
2023-01-19T23:46:39.659Z,0.50
2023-01-19T23:49:07.249Z,0.88
2023-01-19T23:51:35.237Z,0.55
2023-01-19T23:54:02.811Z,0.55
2023-01-19T23:56:33.650Z,0.80
2023-01-19T23:59:06.399Z,0.70
